Time;durP1;ratioP1;P1;durP2;ratioP2;P2;SDS_P1;SDS_P2;PMS_P1;PMS_P2;Temp;Humidity;BMP_temperature;BMP_pressure;BME280_temperature;BME280_humidity;BME280_pressure;Samples;Min_cycle;Max_cycle;Signal;HPM_P1;HPM_P2
2022/11/02 00:00:28;;;;;;;14.57;2.63;;;;;;;14.92;59.71;101314.06;5030543;28;20389;-72
2022/11/02 00:02:53;;;;;;;7.32;1.67;;;;;;;14.90;59.71;101308.78;5030513;28;20030;-73
2022/11/02 00:05:23;;;;;;;9.45;2.10;;;;;;;14.89;59.96;101306.22;5029597;28;20025;-73
2022/11/02 00:07:49;;;;;;;10.65;1.92;;;;;;;14.85;60.13;101305.94;5047296;28;20025;-73
2022/11/02 00:10:15;;;;;;;11.00;1.83;;;;;;;14.88;59.85;101307.34;5070497;28;20020;-72
2022/11/02 00:12:40;;;;;;;9.98;2.15;;;;;;;14.89;59.78;101309.84;5069620;28;20111;-72
2022/11/02 00:15:06;;;;;;;11.30;2.05;;;;;;;14.91;59.68;101313.25;5047738;28;20032;-73
2022/11/02 00:17:33;;;;;;;7.22;1.92;;;;;;;14.93;59.56;101310.16;5039956;28;20028;-73
2022/11/02 00:19:59;;;;;;;6.30;1.80;;;;;;;14.92;59.46;101298.16;5060470;28;20056;-72
2022/11/02 00:22:25;;;;;;;10.25;1.85;;;;;;;14.91;59.43;101307.66;5050141;28;20060;-73
2022/11/02 00:24:51;;;;;;;8.32;2.03;;;;;;;14.93;59.62;101304.56;5050276;28;20083;-72
2022/11/02 00:27:16;;;;;;;10.98;2.00;;;;;;;14.94;59.44;101312.72;5051202;28;20503;-72
2022/11/02 00:29:42;;;;;;;5.53;1.90;;;;;;;14.94;59.52;101301.53;5071760;28;20441;-72
2022/11/02 00:32:07;;;;;;;6.82;1.73;;;;;;;14.94;59.09;101309.06;5050516;28;20099;-72
2022/11/02 00:34:32;;;;;;;10.40;1.77;;;;;;;14.89;59.27;101307.06;5032995;28;20060;-72
2022/11/02 00:36:57;;;;;;;12.57;2.13;;;;;;;14.91;59.19;101298.44;5033282;28;20151;-72
2022/11/02 00:39:23;;;;;;;8.30;1.85;;;;;;;14.90;59.30;101310.72;5072276;28;20032;-72
2022/11/02 00:41:48;;;;;;;10.02;2.05;;;;;;;14.81;58.94;101313.16;5060000;28;20022;-72
2022/11/02 00:44:13;;;;;;;7.97;2.15;;;;;;;14.85;59.19;101319.06;5033867;28;20025;-72
2022/11/02 00:46:39;;;;;;;18.67;2.40;;;;;;;14.84;59.15;101315.44;5032630;28;20108;-73
2022/11/02 00:49:04;;;;;;;7.85;1.50;;;;;;;14.88;59.01;101322.16;5041305;28;20079;-72
2022/11/02 00:51:30;;;;;;;18.20;2.00;;;;;;;14.89;58.75;101317.41;5033658;28;20030;-73
2022/11/02 00:53:55;;;;;;;10.60;1.67;;;;;;;14.89;58.48;101315.44;5032981;28;20802;-73
2022/11/02 00:56:20;;;;;;;10.93;2.00;;;;;;;14.83;58.41;101322.13;5033343;28;20083;-72
2022/11/02 00:58:46;;;;;;;8.65;1.80;;;;;;;14.82;58.53;101331.66;5059489;28;20028;-72
2022/11/02 01:01:11;;;;;;;8.50;1.52;;;;;;;14.78;57.98;101333.28;5072538;28;20089;-72
2022/11/02 01:03:36;;;;;;;6.75;1.88;;;;;;;14.73;57.88;101330.44;5069445;28;20082;-72
2022/11/02 01:06:13;;;;;;;7.40;1.60;;;;;;;14.72;58.04;101331.56;5041675;28;20037;-72
2022/11/02 01:08:39;;;;;;;9.48;1.90;;;;;;;14.69;57.91;101334.88;5056142;28;20424;-72
2022/11/02 01:11:23;;;;;;;8.98;1.58;;;;;;;14.71;58.01;101341.06;5059458;28;20108;-72
2022/11/02 01:13:51;;;;;;;12.45;1.63;;;;;;;14.62;57.43;101349.13;5052881;28;20393;-73
2022/11/02 01:16:17;;;;;;;6.57;1.63;;;;;;;14.69;57.92;101346.91;5052340;28;20533;-73
2022/11/02 01:18:42;;;;;;;7.00;1.40;;;;;;;14.61;57.23;101353.00;5063854;28;20124;-72
2022/11/02 01:21:08;;;;;;;11.52;1.83;;;;;;;14.64;57.47;101357.22;5072845;28;20125;-72
2022/11/02 01:23:35;;;;;;;10.10;1.65;;;;;;;14.58;57.02;101353.56;5055204;28;20021;-72
2022/11/02 01:26:05;;;;;;;9.07;2.13;;;;;;;14.58;57.29;101359.13;5052606;28;20044;-72
2022/11/02 01:28:31;;;;;;;13.40;2.00;;;;;;;14.52;57.17;101353.78;5061996;28;20435;-72
2022/11/02 01:30:57;;;;;;;9.52;1.80;;;;;;;14.53;57.36;101361.03;5071925;28;20029;-72
2022/11/02 01:33:23;;;;;;;11.32;2.22;;;;;;;14.47;57.13;101357.34;5060364;28;20036;-73
2022/11/02 01:35:49;;;;;;;8.85;1.55;;;;;;;14.46;57.38;101355.63;5056153;28;20044;-72
2022/11/02 01:38:14;;;;;;;9.65;1.52;;;;;;;14.45;57.37;101368.75;5069315;28;20032;-72
2022/11/02 01:40:39;;;;;;;12.85;2.05;;;;;;;14.41;57.46;101373.19;5039796;28;20343;-72
2022/11/02 01:43:26;;;;;;;8.93;1.67;;;;;;;14.48;57.47;101362.66;5031581;28;20033;-72
2022/11/02 01:46:11;;;;;;;8.30;1.50;;;;;;;14.51;57.32;101369.69;5032550;28;20530;-72
2022/11/02 01:48:45;;;;;;;7.28;1.63;;;;;;;14.45;57.16;101365.97;5049079;28;20401;-72
2022/11/02 01:51:25;;;;;;;8.25;1.85;;;;;;;14.48;57.55;101378.56;5071442;28;20104;-72
2022/11/02 01:53:53;;;;;;;7.28;1.65;;;;;;;14.51;57.14;101374.44;5072365;28;20021;-72
2022/11/02 01:56:22;;;;;;;8.02;1.83;;;;;;;14.48;56.85;101385.00;5062476;28;20087;-72
2022/11/02 01:58:53;;;;;;;9.30;1.60;;;;;;;14.44;56.72;101369.88;5039673;28;20029;-74
2022/11/02 02:01:19;;;;;;;7.25;1.48;;;;;;;14.32;56.96;101379.56;5032319;28;20469;-73
2022/11/02 02:03:46;;;;;;;3.72;1.30;;;;;;;14.32;57.20;101374.81;5031984;28;20026;-73
2022/11/02 02:06:13;;;;;;;9.80;2.10;;;;;;;14.33;57.37;101379.28;5050785;28;20017;-72
2022/11/02 02:08:44;;;;;;;9.65;1.73;;;;;;;14.35;57.64;101377.06;5059171;28;20115;-73
2022/11/02 02:11:30;;;;;;;7.65;1.55;;;;;;;14.32;57.87;101394.34;5071117;28;20081;-72
2022/11/02 02:14:01;;;;;;;8.43;2.00;;;;;;;14.30;57.50;101373.38;5052081;28;20029;-72
2022/11/02 02:17:05;;;;;;;6.80;1.50;;;;;;;14.34;57.85;101372.56;5039613;28;20025;-72
2022/11/02 02:19:45;;;;;;;9.57;1.83;;;;;;;14.28;57.87;101375.59;5054771;28;20060;-72
2022/11/02 02:23:12;;;;;;;11.68;2.10;;;;;;;14.31;57.83;101375.06;5043537;28;20106;-73
2022/11/02 02:25:57;;;;;;;9.43;1.75;;;;;;;14.16;58.27;101378.56;5048361;28;20471;-72
2022/11/02 02:28:36;;;;;;;10.63;2.13;;;;;;;14.25;58.28;101382.53;5044555;28;20049;-72
2022/11/02 02:31:16;;;;;;;6.22;1.48;;;;;;;14.28;58.16;101373.66;5034430;28;20084;-72
2022/11/02 02:34:20;;;;;;;7.65;1.67;;;;;;;14.27;58.32;101377.56;5030752;28;20018;-72
2022/11/02 02:36:54;;;;;;;9.63;1.95;;;;;;;14.26;58.39;101375.84;5029322;28;20488;-72
2022/11/02 02:40:03;;;;;;;6.65;1.63;;;;;;;14.34;58.29;101377.31;5046362;28;20055;-72
2022/11/02 02:42:30;;;;;;;6.90;1.65;;;;;;;14.28;57.95;101381.19;5031150;28;20033;-72
2022/11/02 02:45:25;;;;;;;6.50;1.70;;;;;;;14.29;58.00;101385.66;5032241;28;20025;-72
2022/11/02 02:47:59;;;;;;;11.55;1.92;;;;;;;14.24;58.29;101383.66;5041012;28;20083;-72
2022/11/02 02:50:30;;;;;;;9.65;1.98;;;;;;;14.23;58.16;101387.56;5046752;28;20033;-72
2022/11/02 02:52:58;;;;;;;12.88;2.40;;;;;;;14.21;58.03;101389.78;5038773;28;20024;-72
2022/11/02 02:55:31;;;;;;;7.97;1.70;;;;;;;14.18;58.21;101387.50;5036059;28;20038;-72
2022/11/02 02:57:58;;;;;;;;;;;;;;;14.32;57.99;101391.56;5051502;28;20355;-72
2022/11/02 03:00:24;;;;;;;8.70;1.75;;;;;;;14.23;58.15;101391.19;5045080;28;20011;-72
2022/11/02 03:03:02;;;;;;;10.98;2.03;;;;;;;14.20;57.84;101394.50;5033920;28;20132;-72
2022/11/02 03:05:33;;;;;;;16.98;2.80;;;;;;;14.20;58.00;101391.72;5030500;28;20033;-73
2022/11/02 03:08:12;;;;;;;13.70;2.03;;;;;;;14.19;57.91;101386.41;5040207;28;20021;-72
2022/11/02 03:10:49;;;;;;;8.68;2.20;;;;;;;14.14;57.79;101397.50;5038037;28;20032;-72
2022/11/02 03:13:29;;;;;;;14.40;2.03;;;;;;;14.11;57.90;101392.44;5030789;28;20040;-72
2022/11/02 03:16:02;;;;;;;15.40;2.20;;;;;;;14.08;57.75;101391.03;5032289;28;20037;-72
2022/11/02 03:18:51;;;;;;;10.48;2.22;;;;;;;14.11;57.69;101403.63;5044489;28;20036;-72
2022/11/02 03:21:22;;;;;;;14.30;2.38;;;;;;;14.08;57.50;101395.78;5035188;28;20038;-72
2022/11/02 03:24:16;;;;;;;10.85;2.13;;;;;;;14.03;57.59;101401.28;5042745;28;20101;-72
2022/11/02 03:26:59;;;;;;;12.48;2.25;;;;;;;13.93;58.07;101416.00;5055775;28;20029;-72
2022/11/02 03:29:33;;;;;;;12.73;2.00;;;;;;;13.86;57.91;101418.16;5034041;28;20033;-72
2022/11/02 03:32:06;;;;;;;14.82;2.70;;;;;;;13.93;57.82;101425.22;5030946;28;20018;-72
2022/11/02 03:34:47;;;;;;;12.40;2.33;;;;;;;13.86;58.15;101430.16;5039714;28;20142;-72
2022/11/02 03:37:30;;;;;;;10.52;2.50;;;;;;;13.85;58.39;101422.03;5032470;28;20052;-72
2022/11/02 03:39:57;;;;;;;;;;;;;;;13.95;57.78;101417.44;5040858;28;20554;-72
2022/11/02 03:42:26;;;;;;;9.35;2.05;;;;;;;13.82;57.94;101423.41;5029992;28;20405;-72
2022/11/02 03:45:15;;;;;;;14.15;2.40;;;;;;;13.85;58.32;101425.69;5051085;28;20116;-72
2022/11/02 03:47:45;;;;;;;11.27;2.47;;;;;;;13.91;58.06;101435.81;5047292;28;20635;-72
2022/11/02 03:50:15;;;;;;;10.32;2.17;;;;;;;13.90;57.82;101420.16;5043035;28;20028;-72
2022/11/02 03:52:43;;;;;;;13.98;3.15;;;;;;;13.87;58.31;101426.28;5029949;28;20040;-72
2022/11/02 03:55:14;;;;;;;12.00;2.28;;;;;;;13.90;58.13;101433.25;5048270;28;20033;-72
2022/11/02 03:57:48;;;;;;;11.57;2.22;;;;;;;13.91;58.16;101449.75;5051539;28;20035;-72
2022/11/02 04:00:15;;;;;;;15.77;2.58;;;;;;;13.96;58.22;101441.44;5036910;28;20033;-72
2022/11/02 04:02:46;;;;;;;12.45;2.50;;;;;;;13.84;58.32;101448.28;5049501;28;20571;-72
2022/11/02 04:05:11;;;;;;;12.88;2.45;;;;;;;13.85;58.62;101450.78;5041225;28;20573;-72
2022/11/02 04:10:26;;;;;;;11.55;2.13;;;;;;;13.77;59.11;101459.63;5068169;28;20467;-72
2022/11/02 04:15:35;;;;;;;9.88;1.90;;;;;;;13.79;58.99;101476.94;5036544;28;20040;-72
2022/11/02 04:20:49;;;;;;;14.80;2.97;;;;;;;13.74;59.24;101466.56;5074329;28;20090;-72
2022/11/02 04:26:12;;;;;;;12.80;2.67;;;;;;;13.73;59.07;101480.78;5034073;28;20052;-72
2022/11/02 04:28:37;;;;;;;15.20;2.42;;;;;;;13.67;59.31;101477.06;5072572;28;20033;-72
2022/11/02 04:31:03;;;;;;;15.75;3.00;;;;;;;13.73;59.41;101486.34;5034699;28;20021;-72
2022/11/02 04:33:34;;;;;;;14.60;2.80;;;;;;;13.76;59.34;101485.84;5033668;28;20029;-72
2022/11/02 04:36:04;;;;;;;13.57;2.50;;;;;;;13.69;59.25;101499.97;5041399;28;20052;-72
2022/11/02 04:38:39;;;;;;;14.63;3.17;;;;;;;13.77;59.29;101504.25;5073756;28;20025;-72
2022/11/02 04:43:48;;;;;;;8.93;1.92;;;;;;;13.77;59.04;101515.41;5055801;28;20243;-71
2022/11/02 04:46:13;;;;;;;13.55;2.35;;;;;;;13.71;59.36;101527.59;5047859;28;20234;-72
2022/11/02 04:48:38;;;;;;;12.75;2.42;;;;;;;13.72;59.35;101526.53;5034080;28;20026;-72
2022/11/02 04:51:04;;;;;;;14.13;2.30;;;;;;;13.74;59.18;101532.66;5037045;28;20485;-72
2022/11/02 04:53:29;;;;;;;10.80;2.45;;;;;;;13.75;58.91;101539.94;5033146;28;20045;-72
2022/11/02 04:55:55;;;;;;;11.63;2.17;;;;;;;13.70;59.10;101532.34;5037167;28;20026;-71
2022/11/02 04:58:20;;;;;;;14.65;2.55;;;;;;;13.61;59.37;101538.63;5061409;28;20032;-72
2022/11/02 05:00:45;;;;;;;10.63;2.47;;;;;;;13.69;59.26;101529.81;5066920;28;20411;-68
2022/11/02 05:03:10;;;;;;;11.40;2.28;;;;;;;13.69;59.36;101541.81;5052560;28;20117;-69
2022/11/02 05:05:36;;;;;;;14.13;2.65;;;;;;;13.67;59.41;101540.38;5066561;28;20094;-69
2022/11/02 05:08:01;;;;;;;11.20;2.50;;;;;;;13.64;59.53;101554.88;5072851;28;20394;-70
2022/11/02 05:10:26;;;;;;;14.75;2.40;;;;;;;13.63;59.24;101564.31;5066490;28;20641;-72
2022/11/02 05:13:00;;;;;;;14.35;2.58;;;;;;;13.70;59.54;101568.59;5047435;28;20030;-72
2022/11/02 05:15:26;;;;;;;15.80;2.20;;;;;;;13.70;59.29;101562.19;5059331;28;20085;-72
2022/11/02 05:17:51;;;;;;;12.27;2.22;;;;;;;13.70;59.50;101559.41;5069081;28;20025;-71
2022/11/02 05:20:16;;;;;;;10.98;2.25;;;;;;;13.65;58.75;101573.28;5063652;28;20108;-71
2022/11/02 05:22:42;;;;;;;13.63;2.75;;;;;;;13.68;58.86;101572.78;5032327;28;20118;-73
2022/11/02 05:25:09;;;;;;;13.32;2.10;;;;;;;13.62;59.05;101576.56;5033096;28;20033;-76
2022/11/02 05:27:34;;;;;;;12.98;3.15;;;;;;;13.62;59.14;101584.94;5036291;28;20071;-70
2022/11/02 05:29:59;;;;;;;12.80;2.63;;;;;;;13.66;59.18;101586.13;5032231;28;20025;-68
2022/11/02 05:32:26;;;;;;;9.35;2.13;;;;;;;13.54;59.42;101589.00;5033065;28;20449;-67
2022/11/02 05:34:51;;;;;;;10.93;2.50;;;;;;;13.47;59.48;101605.06;5044722;28;20033;-71
2022/11/02 05:37:16;;;;;;;11.05;2.20;;;;;;;13.42;59.35;101600.25;5033493;28;20045;-69
2022/11/02 05:39:42;;;;;;;12.70;2.13;;;;;;;13.37;59.43;101604.91;5032083;28;20028;-67
2022/11/02 05:42:07;;;;;;;12.75;2.42;;;;;;;13.38;59.49;101610.22;5048889;28;20120;-70
2022/11/02 05:44:32;;;;;;;13.23;2.33;;;;;;;13.41;59.55;101617.25;5050665;28;20103;-69
2022/11/02 05:46:58;;;;;;;10.73;2.25;;;;;;;13.42;59.15;101625.34;5072698;28;20024;-69
2022/11/02 05:49:23;;;;;;;12.75;2.40;;;;;;;13.37;59.41;101628.06;5066435;28;20673;-69
2022/11/02 05:51:48;;;;;;;18.83;2.35;;;;;;;13.40;62.72;101627.56;5032280;28;20161;-70
2022/11/02 05:54:13;;;;;;;11.82;2.30;;;;;;;13.40;59.51;101627.56;5033929;28;20026;-71
2022/11/02 05:56:39;;;;;;;11.18;2.50;;;;;;;13.33;59.47;101635.25;5035958;28;20029;-71
2022/11/02 05:59:04;;;;;;;15.60;2.40;;;;;;;13.31;59.47;101629.06;5031849;28;20037;-70
2022/11/02 06:01:30;;;;;;;12.85;2.30;;;;;;;13.34;59.92;101650.88;5040228;28;20045;-68
2022/11/02 06:03:55;;;;;;;8.45;2.20;;;;;;;13.34;59.28;101634.13;5031931;28;20033;-68
2022/11/02 06:06:21;;;;;;;13.80;2.83;;;;;;;13.36;59.35;101647.81;5031455;28;20025;-67
2022/11/02 06:08:46;;;;;;;11.93;2.05;;;;;;;13.32;59.71;101644.69;5035582;28;20021;-67
2022/11/02 06:11:12;;;;;;;12.73;2.17;;;;;;;13.35;59.83;101657.28;5038321;28;20064;-70
2022/11/02 06:13:39;;;;;;;13.93;2.78;;;;;;;13.32;59.88;101664.19;5039795;28;20028;-68
2022/11/02 06:16:08;;;;;;;9.48;2.20;;;;;;;13.29;59.89;101667.53;5044709;28;20029;-67
2022/11/02 06:18:34;;;;;;;10.38;2.45;;;;;;;13.29;59.92;101661.09;5046768;28;20052;-68
2022/11/02 06:20:59;;;;;;;14.65;2.33;;;;;;;13.30;59.68;101672.00;5031593;28;20037;-67
2022/11/02 06:23:26;;;;;;;10.73;2.50;;;;;;;13.30;59.75;101672.00;5031508;28;20033;-68
2022/11/02 06:25:52;;;;;;;13.82;2.45;;;;;;;13.24;60.16;101675.78;5030921;28;20116;-67
2022/11/02 06:28:18;;;;;;;10.25;2.08;;;;;;;13.22;59.73;101692.72;5037316;28;20457;-71
2022/11/02 06:30:43;;;;;;;10.70;2.58;;;;;;;13.19;59.99;101697.94;5032248;28;20135;-67
2022/11/02 06:33:09;;;;;;;13.05;2.30;;;;;;;13.21;60.20;101706.94;5031640;28;20385;-67
2022/11/02 06:35:34;;;;;;;12.48;2.28;;;;;;;13.23;60.51;101705.59;5054743;28;20060;-67
2022/11/02 06:37:59;;;;;;;11.05;2.70;;;;;;;13.18;60.30;101713.00;5059555;28;20473;-67
2022/11/02 06:40:24;;;;;;;13.02;2.83;;;;;;;13.19;60.22;101709.94;5030325;28;20033;-67
2022/11/02 06:42:57;;;;;;;11.50;2.70;;;;;;;13.17;60.16;101730.81;5029536;28;20064;-67
2022/11/02 06:45:23;;;;;;;14.20;2.53;;;;;;;13.20;59.84;101739.53;5042534;28;20058;-66
2022/11/02 06:47:48;;;;;;;10.90;2.42;;;;;;;13.18;60.32;101743.66;5045138;28;20071;-66
2022/11/02 06:50:14;;;;;;;7.63;1.95;;;;;;;13.16;60.06;101746.69;5037833;28;20045;-66
2022/11/02 06:52:43;;;;;;;13.43;2.55;;;;;;;13.19;60.01;101759.28;5032388;28;20427;-66
2022/11/02 06:55:10;;;;;;;11.88;2.63;;;;;;;13.20;59.98;101764.63;5042761;28;20128;-66
2022/11/02 06:57:37;;;;;;;8.40;2.20;;;;;;;13.22;60.27;101781.09;5032621;28;20275;-65
2022/11/02 07:00:08;;;;;;;12.32;2.42;;;;;;;13.24;59.86;101778.91;5034722;28;20037;-67
2022/11/02 07:02:33;;;;;;;13.20;2.80;;;;;;;13.21;59.76;101783.03;5046574;28;20435;-66
2022/11/02 07:04:59;;;;;;;10.13;2.50;;;;;;;13.22;59.82;101781.94;5037503;28;20021;-66
2022/11/02 07:07:24;;;;;;;9.80;2.47;;;;;;;13.18;60.07;101793.84;5050637;28;20037;-68
2022/11/02 07:09:49;;;;;;;17.95;2.50;;;;;;;13.13;60.11;101785.38;5038561;28;20487;-70
2022/11/02 07:12:14;;;;;;;9.95;1.90;;;;;;;13.15;59.98;101806.31;5046053;28;20075;-67
2022/11/02 07:14:40;;;;;;;12.25;2.20;;;;;;;13.17;59.82;101806.09;5043278;28;20357;-67
2022/11/02 07:17:05;;;;;;;11.80;2.40;;;;;;;13.12;60.38;101825.47;5033977;28;20037;-70
2022/11/02 07:19:30;;;;;;;14.65;2.58;;;;;;;13.15;59.94;101825.81;5037229;28;20563;-67
2022/11/02 07:21:56;;;;;;;13.63;3.05;;;;;;;13.15;60.32;101830.56;5037863;28;20098;-68
2022/11/02 07:24:21;;;;;;;11.10;2.30;;;;;;;13.16;59.91;101830.31;5046540;28;20033;-66
2022/11/02 07:26:48;;;;;;;13.73;2.78;;;;;;;13.19;60.30;101838.19;5044120;28;20021;-67
2022/11/02 07:29:14;;;;;;;10.80;2.10;;;;;;;13.22;60.21;101839.63;5044028;28;20384;-67
2022/11/02 07:31:39;;;;;;;14.38;2.15;;;;;;;13.17;60.04;101848.75;5035823;28;20034;-68
2022/11/02 07:34:04;;;;;;;12.88;2.20;;;;;;;13.21;59.96;101849.09;5044218;28;20056;-68
2022/11/02 07:36:30;;;;;;;13.80;2.95;;;;;;;13.24;60.14;101855.06;5008904;28;1035764;-67
2022/11/02 07:38:55;;;;;;;13.57;2.25;;;;;;;13.16;60.33;101854.53;5040578;28;20037;-68
2022/11/02 07:41:20;;;;;;;9.60;2.55;;;;;;;13.14;60.52;101848.38;5047876;28;20048;-66
2022/11/02 07:43:45;;;;;;;14.65;2.58;;;;;;;13.13;60.80;101847.53;5037174;28;20025;-67
2022/11/02 07:46:11;;;;;;;13.57;2.38;;;;;;;13.15;60.69;101866.81;5034679;28;20021;-68
2022/11/02 07:48:39;;;;;;;12.10;2.53;;;;;;;13.15;60.79;101864.00;5063119;28;20033;-68
2022/11/02 07:51:06;;;;;;;10.63;2.20;;;;;;;13.19;60.90;101865.22;5055453;28;20061;-67
2022/11/02 07:53:31;;;;;;;16.17;2.80;;;;;;;13.23;60.73;101870.06;5056724;28;20032;-69
2022/11/02 07:55:59;;;;;;;13.38;2.30;;;;;;;13.23;60.55;101866.44;5049883;28;20480;-70
2022/11/02 07:58:25;;;;;;;11.02;2.05;;;;;;;13.28;61.29;101877.69;5044624;28;20037;-69
2022/11/02 08:00:51;;;;;;;11.20;2.50;;;;;;;13.28;60.97;101883.28;5046290;28;20391;-68
2022/11/02 08:03:16;;;;;;;12.05;2.88;;;;;;;13.29;60.54;101876.63;5047017;28;20047;-70
2022/11/02 08:05:42;;;;;;;10.80;2.25;;;;;;;13.32;60.70;101875.28;5049082;28;20589;-70
2022/11/02 08:08:16;;;;;;;15.43;2.90;;;;;;;13.30;60.82;101872.75;5039427;28;20048;-73
2022/11/02 08:10:42;;;;;;;11.90;2.85;;;;;;;13.37;60.81;101884.59;5040522;28;20472;-70
2022/11/02 08:13:09;;;;;;;11.73;2.60;;;;;;;13.37;60.76;101886.56;5046115;28;20029;-69
2022/11/02 08:15:35;;;;;;;9.40;2.45;;;;;;;13.38;60.75;101874.28;5044300;28;20045;-72
2022/11/02 08:18:05;;;;;;;11.02;1.92;;;;;;;13.38;60.50;101889.09;5044789;28;20245;-69
2022/11/02 08:20:33;;;;;;;12.90;2.60;;;;;;;13.38;60.57;101891.88;5050925;28;20032;-69
2022/11/02 08:22:59;;;;;;;13.68;2.47;;;;;;;13.41;60.80;101893.34;5046596;28;20036;-69
2022/11/02 08:25:25;;;;;;;12.20;2.35;;;;;;;13.40;60.54;101895.28;5032127;28;20506;-70
2022/11/02 08:27:50;;;;;;;10.75;2.00;;;;;;;13.42;60.89;101897.81;5044927;28;20074;-70
2022/11/02 08:30:15;;;;;;;8.68;2.30;;;;;;;13.45;60.73;101903.75;5052133;28;20033;-69
2022/11/02 08:32:41;;;;;;;13.45;2.47;;;;;;;13.48;60.73;101896.84;5051111;28;20029;-69
2022/11/02 08:35:06;;;;;;;10.50;2.42;;;;;;;13.49;60.92;101902.16;5051982;28;20029;-69
2022/11/02 08:37:32;;;;;;;14.60;2.70;;;;;;;13.51;60.45;101899.09;5050273;28;20116;-74
2022/11/02 08:39:57;;;;;;;16.35;3.03;;;;;;;13.58;60.72;101899.81;5047684;28;20659;-68
2022/11/02 08:42:22;;;;;;;12.82;2.90;;;;;;;13.60;60.45;101907.94;5046112;28;20032;-68
2022/11/02 08:44:50;;;;;;;14.98;2.90;;;;;;;13.67;60.46;101905.84;5033279;28;20025;-68
2022/11/02 08:47:17;;;;;;;14.75;2.80;;;;;;;13.73;59.99;101922.44;5050233;28;20035;-70
2022/11/02 08:49:42;;;;;;;12.50;2.67;;;;;;;13.73;59.69;101925.22;5048480;28;20033;-67
2022/11/02 08:52:08;;;;;;;11.85;2.25;;;;;;;13.74;59.58;101917.72;5047388;28;20903;-69
2022/11/02 08:54:33;;;;;;;13.48;2.80;;;;;;;13.74;59.55;101909.34;5039413;28;20473;-69
2022/11/02 08:56:58;;;;;;;15.05;2.67;;;;;;;13.76;59.09;101921.13;5047366;28;20025;-68
2022/11/02 08:59:23;;;;;;;11.95;2.47;;;;;;;13.75;59.05;101930.56;5053688;28;20071;-68
2022/11/02 09:01:49;;;;;;;10.55;2.15;;;;;;;13.78;58.74;101930.06;5045942;28;20594;-69
2022/11/02 09:04:17;;;;;;;11.73;2.50;;;;;;;13.80;58.60;101927.88;5048926;28;20039;-69
2022/11/02 09:06:42;;;;;;;13.27;2.83;;;;;;;13.79;58.92;101934.53;5059299;28;20095;-70
2022/11/02 09:09:07;;;;;;;16.00;2.58;;;;;;;13.75;59.04;101937.00;5053073;28;20456;-68
2022/11/02 09:11:33;;;;;;;13.10;2.15;;;;;;;13.81;59.32;101929.56;5068465;28;20013;-68
2022/11/02 09:13:58;;;;;;;13.98;2.70;;;;;;;13.78;59.21;101930.06;5062060;28;20078;-69
2022/11/02 09:16:23;;;;;;;14.90;2.78;;;;;;;13.85;59.44;101927.13;5033291;28;20025;-69
2022/11/02 09:18:49;;;;;;;16.10;2.88;;;;;;;13.92;59.21;101931.47;5034336;28;20021;-67
2022/11/02 09:21:14;;;;;;;9.15;2.45;;;;;;;14.04;58.64;101928.63;5052300;28;20516;-67
2022/11/02 09:23:39;;;;;;;14.07;2.67;;;;;;;14.18;58.96;101940.31;5046195;28;20036;-68
2022/11/02 09:26:05;;;;;;;16.35;2.50;;;;;;;14.27;58.55;101955.59;5054620;28;20476;-67
2022/11/02 09:28:30;;;;;;;11.98;2.72;;;;;;;14.41;58.01;101939.34;5052465;28;20071;-67
2022/11/02 09:30:55;;;;;;;18.42;2.97;;;;;;;14.48;57.94;101940.88;5051250;28;20511;-66
2022/11/02 09:33:21;;;;;;;10.75;2.80;;;;;;;14.59;57.95;101947.53;5035465;28;20586;-67
2022/11/02 09:35:48;;;;;;;10.82;2.63;;;;;;;14.71;57.35;101961.41;5070504;28;20098;-67
2022/11/02 09:38:13;;;;;;;18.38;2.95;;;;;;;14.80;57.20;101954.28;5054281;28;20128;-67
2022/11/02 09:40:43;;;;;;;14.63;2.67;;;;;;;14.90;57.17;101948.03;5050289;28;20372;-66
2022/11/02 09:43:27;;;;;;;12.02;2.67;;;;;;;14.97;56.98;101952.34;5051274;28;20075;-72
2022/11/02 09:46:00;;;;;;;11.13;2.30;;;;;;;15.00;56.69;101947.34;5036272;28;20747;-74
2022/11/02 09:48:44;;;;;;;10.75;2.80;;;;;;;14.98;56.88;101951.25;5032874;28;20177;-74
2022/11/02 09:51:16;;;;;;;13.20;2.20;;;;;;;15.04;56.13;101956.91;5032543;28;20064;-73
2022/11/02 09:53:58;;;;;;;17.45;2.72;;;;;;;15.00;56.34;101950.13;5042384;28;20103;-74
2022/11/02 09:56:25;;;;;;;12.57;2.75;;;;;;;15.06;56.20;101960.31;5047533;28;20029;-74
2022/11/02 09:58:59;;;;;;;15.07;2.90;;;;;;;15.10;55.85;101962.31;5035077;28;20480;-73
2022/11/02 10:01:37;;;;;;;14.40;2.22;;;;;;;15.18;55.66;101955.44;5043602;28;20029;-71
2022/11/02 10:04:23;;;;;;;14.20;2.97;;;;;;;15.25;55.92;101966.44;5048359;28;20032;-71
2022/11/02 10:06:58;;;;;;;15.30;3.30;;;;;;;15.24;55.84;101962.78;5046791;28;20503;-71
2022/11/02 10:09:34;;;;;;;13.88;2.20;;;;;;;15.30;55.16;101970.16;5050202;28;20029;-69
2022/11/02 10:12:10;;;;;;;19.33;3.33;;;;;;;15.34;54.74;101968.53;5043925;28;20036;-67
2022/11/02 10:14:41;;;;;;;10.75;2.60;;;;;;;15.38;54.51;101978.13;5052261;28;20036;-66
2022/11/02 10:17:21;;;;;;;11.05;2.75;;;;;;;15.40;54.64;101975.88;5043333;28;20477;-72
2022/11/02 10:19:58;;;;;;;12.27;2.47;;;;;;;15.44;54.77;101979.88;5034002;28;20044;-74
2022/11/02 10:22:31;;;;;;;14.02;2.60;;;;;;;15.49;54.14;101983.88;5035477;28;20032;-71
2022/11/02 10:24:59;;;;;;;14.82;2.53;;;;;;;15.50;54.04;101985.56;5047660;28;20135;-72
2022/11/02 10:27:28;;;;;;;11.55;2.65;;;;;;;15.56;54.16;102001.28;5055352;28;20044;-71
2022/11/02 10:30:12;;;;;;;15.90;3.13;;;;;;;15.58;54.12;101994.34;5034243;28;20049;-70
2022/11/02 10:32:40;;;;;;;11.68;2.40;;;;;;;15.53;53.64;101985.03;5030374;28;20382;-71
2022/11/02 10:35:16;;;;;;;15.15;2.58;;;;;;;15.56;53.45;101995.69;5030942;28;20383;-69
2022/11/02 10:38:18;;;;;;;13.20;3.10;;;;;;;15.58;53.70;101985.09;5052885;28;20566;-71
2022/11/02 10:41:11;;;;;;;13.18;2.60;;;;;;;15.64;54.11;101989.63;5039571;28;20573;-71
2022/11/02 10:44:03;;;;;;;13.75;2.15;;;;;;;15.67;53.67;101991.97;5051377;28;20036;-71
2022/11/02 10:46:37;;;;;;;13.13;2.33;;;;;;;15.66;52.19;101995.88;5051737;28;20060;-69
2022/11/02 10:49:33;;;;;;;11.25;2.55;;;;;;;15.67;53.00;101997.56;5034362;28;20041;-70
2022/11/02 10:51:59;;;;;;;13.63;2.42;;;;;;;15.67;51.58;101992.81;5029721;28;20125;-72
2022/11/02 10:54:25;;;;;;;15.57;2.20;;;;;;;15.69;51.59;102000.97;5031295;28;20108;-71
2022/11/02 10:56:50;;;;;;;10.45;2.40;;;;;;;15.72;51.93;102000.44;5043498;28;20095;-73
2022/11/02 10:59:19;;;;;;;10.60;2.20;;;;;;;15.73;51.17;101999.34;5047454;28;20152;-70
2022/11/02 11:01:50;;;;;;;11.43;2.30;;;;;;;15.77;50.92;102002.47;5046651;28;20488;-72
2022/11/02 11:04:21;;;;;;;13.10;2.33;;;;;;;15.79;50.53;102006.66;5049380;28;20052;-74
2022/11/02 11:06:47;;;;;;;11.20;2.10;;;;;;;15.77;50.46;102008.06;5037232;28;20024;-73
2022/11/02 11:09:25;;;;;;;14.80;2.30;;;;;;;15.77;51.50;102010.88;5042892;28;20085;-71
2022/11/02 11:12:26;;;;;;;14.73;2.33;;;;;;;15.80;50.45;102007.50;5051330;28;20032;-71
2022/11/02 11:14:56;;;;;;;11.98;1.75;;;;;;;15.72;49.75;102006.03;5040999;28;20037;-68
2022/11/02 11:17:34;;;;;;;13.73;2.30;;;;;;;15.70;50.10;102003.50;5049871;28;20036;-73
2022/11/02 11:20:03;;;;;;;13.73;2.88;;;;;;;15.72;50.52;102011.66;5040321;28;20038;-73
2022/11/02 11:22:33;;;;;;;14.70;2.70;;;;;;;15.76;51.07;102012.81;5036958;28;20024;-67
2022/11/02 11:25:24;;;;;;;10.75;2.85;;;;;;;15.76;51.15;102012.81;5041732;28;20036;-73
2022/11/02 11:27:53;;;;;;;8.75;1.88;;;;;;;15.75;49.94;102010.25;5052216;28;20029;-74
2022/11/02 11:30:32;;;;;;;11.05;2.15;;;;;;;15.71;50.45;102005.16;5034558;28;20032;-75
2022/11/02 11:33:00;;;;;;;7.68;1.98;;;;;;;15.74;50.58;102009.41;5036543;28;20764;-76
2022/11/02 11:35:36;;;;;;;9.57;2.20;;;;;;;15.75;50.30;101999.91;5051223;28;20404;-78
2022/11/02 11:38:29;;;;;;;10.10;2.10;;;;;;;15.76;50.61;101995.16;5034323;28;20044;-72
2022/11/02 11:40:58;;;;;;;12.52;2.78;;;;;;;15.78;50.35;101987.34;5038186;28;20049;-77
2022/11/02 11:43:32;;;;;;;11.68;2.53;;;;;;;15.82;52.79;101974.53;5037957;28;20036;-76
2022/11/02 11:45:59;;;;;;;15.40;2.50;;;;;;;15.78;50.41;101976.16;5035179;28;20030;-77